Time;durP1;ratioP1;P1;durP2;ratioP2;P2;SDS_P1;SDS_P2;PMS_P1;PMS_P2;Temp;Humidity;BMP_temperature;BMP_pressure;BME280_temperature;BME280_humidity;BME280_pressure;Samples;Min_cycle;Max_cycle;Signal;HPM_P1;HPM_P2
2022/03/28 00:01:44;;;;;;;10.05;5.40;;;3.50;99.90;;;;;;5006082;28;20520;-78
2022/03/28 00:04:10;;;;;;;7.82;4.50;;;3.30;99.90;;;;;;5006834;28;20030;-78
2022/03/28 00:06:36;;;;;;;13.10;6.55;;;3.00;99.90;;;;;;5011936;28;20087;-79
2022/03/28 00:09:02;;;;;;;13.52;7.20;;;3.10;99.90;;;;;;5010571;28;20041;-78
2022/03/28 00:11:28;;;;;;;13.07;6.65;;;3.20;99.90;;;;;;5007615;28;20517;-78
2022/03/28 00:13:54;;;;;;;10.95;6.30;;;3.20;99.90;;;;;;5007577;28;20065;-78
2022/03/28 00:16:20;;;;;;;11.63;6.18;;;3.30;99.90;;;;;;5004192;28;20125;-78
2022/03/28 00:18:46;;;;;;;15.65;6.20;;;3.30;99.90;;;;;;5011759;28;20191;-78
2022/03/28 00:21:11;;;;;;;11.90;5.57;;;3.30;99.90;;;;;;4986987;28;21045;-78
2022/03/28 00:23:37;;;;;;;9.05;6.03;;;3.10;99.90;;;;;;5010203;28;20046;-79
2022/03/28 00:26:03;;;;;;;11.02;6.05;;;3.00;99.90;;;;;;5004076;28;20022;-78
2022/03/28 00:28:28;;;;;;;10.80;5.90;;;2.80;99.90;;;;;;5010030;28;20038;-78
2022/03/28 00:30:54;;;;;;;11.02;5.70;;;2.70;99.90;;;;;;5007609;28;20049;-78
2022/03/28 00:33:20;;;;;;;11.55;5.85;;;2.60;99.90;;;;;;5005866;28;20517;-78
2022/03/28 00:35:45;;;;;;;9.63;5.78;;;2.80;99.90;;;;;;5006863;28;20357;-78
2022/03/28 00:38:11;;;;;;;13.75;6.43;;;2.90;99.90;;;;;;5008944;28;20034;-78
2022/03/28 00:40:37;;;;;;;10.32;5.70;;;3.00;99.90;;;;;;5009965;28;20388;-79
2022/03/28 00:43:06;;;;;;;14.70;6.80;;;3.10;99.90;;;;;;5007457;28;20205;-78
2022/03/28 00:45:33;;;;;;;12.00;5.75;;;3.10;99.90;;;;;;5005406;28;20046;-78
2022/03/28 00:48:00;;;;;;;11.45;5.85;;;3.10;99.90;;;;;;5007232;28;20180;-78
2022/03/28 00:50:28;;;;;;;11.70;6.10;;;2.60;99.90;;;;;;5008000;28;20467;-79
2022/03/28 00:52:54;;;;;;;11.82;6.57;;;2.30;99.90;;;;;;5006667;28;20018;-79
2022/03/28 00:55:19;;;;;;;10.00;6.05;;;2.40;99.90;;;;;;5012261;28;20083;-78
2022/03/28 00:57:46;;;;;;;9.75;5.97;;;2.20;99.90;;;;;;5006851;28;20160;-78
2022/03/28 01:00:12;;;;;;;15.98;5.95;;;2.10;99.90;;;;;;5004616;28;20061;-78
2022/03/28 01:02:38;;;;;;;13.88;6.00;;;2.00;99.90;;;;;;5003467;28;20038;-78
2022/03/28 01:05:04;;;;;;;9.98;5.47;;;2.00;99.90;;;;;;4999471;28;20128;-78
2022/03/28 01:07:30;;;;;;;9.35;5.05;;;2.20;99.90;;;;;;5004910;28;20038;-78
2022/03/28 01:09:59;;;;;;;9.98;5.60;;;2.00;99.90;;;;;;5008906;28;20097;-78
2022/03/28 01:12:31;;;;;;;11.13;5.82;;;1.90;99.90;;;;;;4981706;28;20073;-78
2022/03/28 01:14:57;;;;;;;11.57;6.07;;;1.70;99.90;;;;;;5006216;28;20037;-78
2022/03/28 01:20:09;;;;;;;11.43;6.00;;;1.50;99.90;;;;;;5003968;28;20139;-78
2022/03/28 01:22:35;;;;;;;9.55;5.50;;;1.70;99.90;;;;;;5004319;28;20108;-78
2022/03/28 01:25:04;;;;;;;10.20;5.43;;;1.70;99.90;;;;;;5002417;28;20044;-77
2022/03/28 01:27:31;;;;;;;10.23;5.93;;;1.90;99.90;;;;;;5002444;28;20034;-77
2022/03/28 01:29:56;;;;;;;9.13;5.18;;;2.00;99.90;;;;;;5004865;28;20137;-77
2022/03/28 01:32:22;;;;;;;8.52;6.10;;;1.90;99.90;;;;;;5001377;28;20434;-77
2022/03/28 01:34:48;;;;;;;11.38;6.10;;;1.80;99.90;;;;;;5002565;28;20635;-77
2022/03/28 01:37:13;;;;;;;11.57;5.47;;;1.90;99.90;;;;;;5007877;28;20522;-78
2022/03/28 01:39:39;;;;;;;11.85;5.85;;;1.90;99.90;;;;;;5004860;28;20653;-78
2022/03/28 01:42:05;;;;;;;9.35;4.30;;;1.90;99.90;;;;;;5005454;28;20080;-78
2022/03/28 01:44:31;;;;;;;8.15;5.55;;;2.00;99.90;;;;;;5008633;28;20026;-78
2022/03/28 01:46:56;;;;;;;9.63;5.20;;;1.90;99.90;;;;;;5009983;28;20044;-78
2022/03/28 01:49:22;;;;;;;12.38;5.68;;;1.90;99.90;;;;;;5009673;28;20041;-77
2022/03/28 01:51:50;;;;;;;5.90;4.22;;;1.90;99.90;;;;;;5002351;28;20065;-77
2022/03/28 01:54:17;;;;;;;11.30;5.93;;;1.80;99.90;;;;;;5009384;28;20116;-78
2022/03/28 01:56:43;;;;;;;10.15;5.78;;;1.90;99.90;;;;;;4985626;28;20066;-77
2022/03/28 01:59:10;;;;;;;10.82;6.13;;;2.00;99.90;;;;;;5000520;28;20050;-77
2022/03/28 02:01:37;;;;;;;10.65;6.28;;;1.90;99.90;;;;;;5004981;28;20042;-77
2022/03/28 02:04:03;;;;;;;10.05;5.20;;;1.90;99.90;;;;;;5002160;28;20038;-77
2022/03/28 02:06:32;;;;;;;8.88;5.38;;;1.80;99.90;;;;;;5006168;28;20044;-77
2022/03/28 02:08:58;;;;;;;;;;;1.50;99.90;;;;;;5002412;28;20034;-77
2022/03/28 02:11:23;;;;;;;4.80;3.33;;;1.30;99.90;;;;;;5004072;28;20415;-78
2022/03/28 02:13:49;;;;;;;11.27;6.60;;;1.10;99.90;;;;;;5006415;28;20030;-78
2022/03/28 02:16:14;;;;;;;13.68;5.20;;;1.10;99.90;;;;;;5007129;28;20026;-77
2022/03/28 02:18:40;;;;;;;8.77;4.95;;;1.30;99.90;;;;;;5006526;28;20068;-77
2022/03/28 02:21:07;;;;;;;8.20;4.72;;;1.30;99.90;;;;;;5007130;28;20518;-78
2022/03/28 02:23:32;;;;;;;11.18;6.60;;;1.10;99.90;;;;;;5005648;28;20032;-77
2022/03/28 02:25:58;;;;;;;10.93;5.75;;;1.20;99.90;;;;;;5009412;28;20037;-77
2022/03/28 02:28:24;;;;;;;12.15;6.25;;;1.40;99.90;;;;;;5012356;28;20026;-77
2022/03/28 02:30:50;;;;;;;14.80;6.55;;;1.40;99.90;;;;;;4990331;28;20038;-78
2022/03/28 02:33:17;;;;;;;11.30;6.50;;;1.40;99.90;;;;;;5012377;28;20034;-77
2022/03/28 02:35:43;;;;;;;10.57;6.18;;;1.40;99.90;;;;;;5008934;28;20040;-77
2022/03/28 02:38:08;;;;;;;9.05;5.88;;;1.50;99.90;;;;;;5009077;28;20026;-77
2022/03/28 02:40:35;;;;;;;13.50;6.22;;;1.50;99.90;;;;;;5007076;28;20496;-77
2022/03/28 02:43:04;;;;;;;12.50;5.78;;;1.50;99.90;;;;;;5007062;28;20034;-77
2022/03/28 02:45:31;;;;;;;9.77;6.35;;;1.40;99.90;;;;;;5007221;28;20040;-78
2022/03/28 02:47:59;;;;;;;10.73;6.10;;;1.40;99.90;;;;;;5007064;28;20030;-77
2022/03/28 02:50:25;;;;;;;14.00;5.93;;;1.30;99.90;;;;;;5005664;28;20029;-77
2022/03/28 02:52:51;;;;;;;8.05;3.40;;;1.10;99.90;;;;;;5007212;28;20073;-77
2022/03/28 02:55:17;;;;;;;12.50;5.68;;;0.90;99.90;;;;;;5012101;28;20127;-78
2022/03/28 02:57:43;;;;;;;11.25;6.18;;;0.60;99.90;;;;;;4987236;28;20038;-77
2022/03/28 03:00:10;;;;;;;11.73;5.68;;;0.50;99.90;;;;;;5009386;28;20033;-77
2022/03/28 03:02:36;;;;;;;14.18;6.72;;;0.70;99.90;;;;;;5003517;28;20092;-77
2022/03/28 03:05:02;;;;;;;9.45;5.18;;;0.90;99.90;;;;;;5006496;28;20145;-77
2022/03/28 03:07:28;;;;;;;16.65;6.13;;;0.90;99.90;;;;;;5008854;28;20120;-77
2022/03/28 03:09:53;;;;;;;10.55;5.40;;;1.10;99.90;;;;;;5009335;28;20474;-77
2022/03/28 03:12:19;;;;;;;11.10;5.97;;;1.10;99.90;;;;;;5006572;28;20026;-78
2022/03/28 03:14:45;;;;;;;12.65;5.57;;;1.10;99.90;;;;;;5010317;28;20080;-77
2022/03/28 03:17:10;;;;;;;9.20;5.03;;;1.10;99.90;;;;;;5004302;28;20038;-77
2022/03/28 03:19:39;;;;;;;10.30;6.13;;;1.10;99.90;;;;;;5013407;28;20038;-77
2022/03/28 03:22:06;;;;;;;9.57;4.97;;;1.10;99.90;;;;;;5010756;28;20065;-78
2022/03/28 03:24:31;;;;;;;10.25;5.88;;;1.00;99.90;;;;;;5006481;28;20045;-77
2022/03/28 03:26:57;;;;;;;12.50;6.10;;;1.10;99.90;;;;;;5004967;28;20034;-78
2022/03/28 03:29:23;;;;;;;12.18;5.78;;;1.10;99.90;;;;;;5009326;28;20030;-78
2022/03/28 03:31:49;;;;;;;8.68;5.60;;;1.20;99.90;;;;;;5007244;28;20084;-78
2022/03/28 03:34:14;;;;;;;15.07;5.70;;;1.10;99.90;;;;;;5004974;28;20034;-78
2022/03/28 03:36:40;;;;;;;12.10;6.53;;;1.10;99.90;;;;;;5011065;28;20045;-77
2022/03/28 03:39:06;;;;;;;11.73;5.45;;;1.20;99.90;;;;;;4994872;28;20036;-77
2022/03/28 03:41:31;;;;;;;12.52;4.88;;;1.20;99.90;;;;;;5009631;28;20038;-77
2022/03/28 03:43:57;;;;;;;7.05;4.45;;;1.00;99.90;;;;;;5004037;28;20030;-78
2022/03/28 03:46:23;;;;;;;10.45;5.05;;;0.70;99.90;;;;;;5007055;28;20045;-77
2022/03/28 03:48:48;;;;;;;9.40;5.65;;;0.50;99.90;;;;;;5007375;28;20152;-77
2022/03/28 03:51:14;;;;;;;12.80;5.22;;;0.40;99.90;;;;;;5007233;28;20044;-77
2022/03/28 03:53:43;;;;;;;10.55;5.28;;;0.30;99.90;;;;;;5007693;28;20112;-78
2022/03/28 03:56:08;;;;;;;10.00;4.50;;;0.20;99.90;;;;;;5009943;28;20022;-77
2022/03/28 03:58:34;;;;;;;8.43;4.38;;;0.10;99.90;;;;;;5013971;28;20392;-77
2022/03/28 04:00:59;;;;;;;6.90;4.65;;;0.00;99.90;;;;;;5005514;28;20077;-78
2022/03/28 04:03:25;;;;;;;11.80;5.07;;;-0.10;99.90;;;;;;5006954;28;20484;-78
2022/03/28 04:05:51;;;;;;;16.90;5.93;;;0.00;99.90;;;;;;5010381;28;20114;-77
2022/03/28 04:08:16;;;;;;;19.20;6.65;;;-0.10;99.90;;;;;;5007715;28;20030;-77
2022/03/28 04:10:45;;;;;;;9.27;4.38;;;-0.10;99.90;;;;;;5006739;28;20057;-78
2022/03/28 04:13:11;;;;;;;;;;;-0.10;99.90;;;;;;5006474;28;20177;-78
2022/03/28 04:15:37;;;;;;;7.85;4.68;;;-0.10;99.90;;;;;;5006490;28;20355;-78
2022/03/28 04:18:03;;;;;;;5.85;3.92;;;-0.20;99.90;;;;;;5007676;28;20477;-77
2022/03/28 04:20:29;;;;;;;7.32;4.15;;;-0.20;99.90;;;;;;5006934;28;20045;-78
2022/03/28 04:22:55;;;;;;;9.52;4.20;;;-0.10;99.90;;;;;;5006128;28;20034;-77
2022/03/28 04:25:21;;;;;;;18.38;5.90;;;-0.20;99.90;;;;;;4987875;28;20100;-77
2022/03/28 04:27:47;;;;;;;13.43;6.53;;;-0.20;99.90;;;;;;5008994;28;20038;-77
2022/03/28 04:30:13;;;;;;;11.75;6.90;;;0.00;99.90;;;;;;5002905;28;20062;-78
2022/03/28 04:32:40;;;;;;;9.82;6.00;;;0.20;99.90;;;;;;5005935;28;20034;-77
2022/03/28 04:35:07;;;;;;;10.05;5.53;;;0.40;99.90;;;;;;5004794;28;20259;-77
2022/03/28 04:37:35;;;;;;;8.25;5.13;;;0.50;99.90;;;;;;5006495;28;20040;-77
2022/03/28 04:40:02;;;;;;;8.43;4.43;;;0.40;99.90;;;;;;5008910;28;20038;-78
2022/03/28 04:42:28;;;;;;;9.57;6.40;;;0.30;99.90;;;;;;5005958;28;20033;-78
2022/03/28 04:44:54;;;;;;;12.50;6.55;;;0.30;99.90;;;;;;5004852;28;20080;-77
2022/03/28 04:47:19;;;;;;;22.60;6.47;;;0.40;99.90;;;;;;4990225;28;20094;-78
2022/03/28 04:49:45;;;;;;;9.73;5.43;;;0.30;99.90;;;;;;5007971;28;20056;-78
2022/03/28 04:52:11;;;;;;;9.68;5.30;;;0.20;99.90;;;;;;5008908;28;21721;-77
2022/03/28 04:54:36;;;;;;;7.07;5.00;;;0.20;99.90;;;;;;5005235;28;20065;-78
2022/03/28 04:57:05;;;;;;;10.02;5.43;;;0.20;99.90;;;;;;5009532;28;20099;-77
2022/03/28 04:59:31;;;;;;;11.90;5.85;;;0.20;99.90;;;;;;5007869;28;20034;-78
2022/03/28 05:01:57;;;;;;;10.15;5.10;;;0.20;99.90;;;;;;5001908;28;20043;-78
2022/03/28 05:04:23;;;;;;;7.25;4.28;;;0.10;99.90;;;;;;5010801;28;20389;-77
2022/03/28 05:06:49;;;;;;;10.38;5.95;;;-0.20;99.90;;;;;;5006661;28;20029;-78
2022/03/28 05:09:15;;;;;;;19.88;6.72;;;-0.30;99.90;;;;;;5000287;28;20038;-78
2022/03/28 05:11:41;;;;;;;11.88;6.15;;;-0.10;99.90;;;;;;5003713;28;20627;-77
2022/03/28 05:14:07;;;;;;;14.73;5.72;;;0.00;99.90;;;;;;5002154;28;20084;-77
2022/03/28 05:16:33;;;;;;;10.57;5.82;;;0.00;99.90;;;;;;5005837;28;20125;-77
2022/03/28 05:18:59;;;;;;;11.75;5.38;;;-0.10;99.90;;;;;;5004550;28;20038;-77
2022/03/28 05:21:24;;;;;;;9.50;5.35;;;-0.10;99.90;;;;;;5004931;28;20401;-78
2022/03/28 05:23:50;;;;;;;9.65;5.70;;;-0.20;99.90;;;;;;4984932;28;20097;-78
2022/03/28 05:26:16;;;;;;;16.25;7.40;;;-0.30;99.90;;;;;;5006830;28;20030;-77
2022/03/28 05:28:41;;;;;;;8.05;5.57;;;-0.30;99.90;;;;;;4999831;28;20033;-77
2022/03/28 05:31:07;;;;;;;14.93;7.43;;;-0.30;99.90;;;;;;5003145;28;20037;-77
2022/03/28 05:33:33;;;;;;;9.02;5.03;;;-0.10;99.90;;;;;;5001201;28;20018;-78
2022/03/28 05:35:59;;;;;;;12.65;6.95;;;-0.10;99.90;;;;;;5003001;28;20033;-78
2022/03/28 05:38:25;;;;;;;11.88;6.88;;;-0.10;99.90;;;;;;5004239;28;20480;-78
2022/03/28 05:40:51;;;;;;;10.00;5.43;;;-0.10;99.90;;;;;;5003502;28;20037;-78
2022/03/28 05:43:17;;;;;;;18.65;7.35;;;-0.10;99.90;;;;;;4982550;28;20480;-77
2022/03/28 05:45:43;;;;;;;9.05;5.38;;;0.00;99.90;;;;;;5002862;28;20083;-77
2022/03/28 05:48:09;;;;;;;9.45;4.93;;;-0.10;99.90;;;;;;5000901;28;20034;-77
2022/03/28 05:50:34;;;;;;;12.52;5.90;;;-0.10;99.90;;;;;;5006517;28;20064;-77
2022/03/28 05:53:00;;;;;;;13.25;6.82;;;-0.10;99.90;;;;;;5007836;28;20034;-77
2022/03/28 05:55:26;;;;;;;15.10;5.57;;;0.00;99.90;;;;;;5000770;28;20068;-77
2022/03/28 05:57:52;;;;;;;12.23;6.45;;;-0.10;99.90;;;;;;5010115;28;21652;-78
2022/03/28 06:00:18;;;;;;;21.25;5.30;;;0.00;99.90;;;;;;5003597;28;20038;-78
2022/03/28 06:02:44;;;;;;;10.45;5.35;;;0.10;99.90;;;;;;5007095;28;20033;-78
2022/03/28 06:05:13;;;;;;;19.48;6.55;;;0.20;99.90;;;;;;5005765;28;20040;-78
2022/03/28 06:07:39;;;;;;;;;;;0.20;99.90;;;;;;5004777;28;20108;-77
2022/03/28 06:10:05;;;;;;;12.00;5.70;;;0.30;99.90;;;;;;5007982;28;20012;-78
2022/03/28 06:12:31;;;;;;;8.27;4.85;;;0.40;99.90;;;;;;4986907;28;20038;-78
2022/03/28 06:14:57;;;;;;;14.15;5.43;;;0.40;99.90;;;;;;5005174;28;20045;-77
2022/03/28 06:17:24;;;;;;;8.35;5.75;;;0.50;99.90;;;;;;5003080;28;20034;-78
2022/03/28 06:19:50;;;;;;;10.80;6.22;;;0.70;99.90;;;;;;5003345;28;20034;-78
2022/03/28 06:22:16;;;;;;;10.57;5.88;;;0.90;99.90;;;;;;5003534;28;20036;-78
2022/03/28 06:24:42;;;;;;;17.17;7.55;;;1.10;99.90;;;;;;5003624;28;20030;-78
2022/03/28 06:27:08;;;;;;;16.35;7.10;;;1.30;99.90;;;;;;5004419;28;20037;-78
2022/03/28 06:29:34;;;;;;;8.88;7.68;;;1.50;99.90;;;;;;5005071;28;20088;-78
2022/03/28 06:32:00;;;;;;;16.38;6.65;;;1.70;99.90;;;;;;5003187;28;20494;-78
2022/03/28 06:34:25;;;;;;;11.00;6.80;;;1.80;99.90;;;;;;5003355;28;20120;-78
2022/03/28 06:36:51;;;;;;;16.27;8.40;;;2.00;99.90;;;;;;5006104;28;20498;-78
2022/03/28 06:39:17;;;;;;;13.85;6.03;;;2.10;99.90;;;;;;5004234;28;20056;-78
2022/03/28 06:41:42;;;;;;;11.43;5.38;;;2.30;99.90;;;;;;5005179;28;20069;-78
2022/03/28 06:44:11;;;;;;;18.13;8.05;;;2.40;99.90;;;;;;5008796;28;20030;-77
2022/03/28 06:46:39;;;;;;;20.25;6.68;;;2.60;99.90;;;;;;5004277;28;20033;-78
2022/03/28 06:49:05;;;;;;;15.43;7.18;;;2.80;99.90;;;;;;5004753;28;20059;-78
2022/03/28 06:51:33;;;;;;;18.00;7.28;;;2.90;99.90;;;;;;5004191;28;20060;-78
2022/03/28 06:53:58;;;;;;;17.02;8.35;;;3.10;99.90;;;;;;5006040;28;20074;-78
2022/03/28 06:56:24;;;;;;;17.10;6.50;;;3.30;99.90;;;;;;5012470;28;20501;-78
2022/03/28 06:58:50;;;;;;;19.65;9.27;;;3.40;99.90;;;;;;5014767;28;20045;-78
2022/03/28 07:01:15;;;;;;;11.40;6.50;;;3.50;99.90;;;;;;5008803;28;20404;-78
2022/03/28 07:03:41;;;;;;;15.35;7.03;;;3.60;99.90;;;;;;5015212;28;20026;-78
2022/03/28 07:06:07;;;;;;;12.88;6.53;;;3.80;99.90;;;;;;5006508;28;20030;-78
2022/03/28 07:08:34;;;;;;;18.85;8.27;;;4.00;99.90;;;;;;5011870;28;20488;-79
2022/03/28 07:10:59;;;;;;;14.50;7.50;;;4.10;99.90;;;;;;5012146;28;20053;-78
2022/03/28 07:13:26;;;;;;;13.88;7.25;;;4.30;99.90;;;;;;5019278;28;20029;-78
2022/03/28 07:15:51;;;;;;;10.95;6.32;;;4.40;99.90;;;;;;5007356;28;20029;-78
2022/03/28 07:18:17;;;;;;;9.57;6.38;;;4.60;99.90;;;;;;5007351;28;20042;-78
2022/03/28 07:20:43;;;;;;;17.75;7.78;;;4.80;99.90;;;;;;5007832;28;20072;-78
2022/03/28 07:23:10;;;;;;;23.05;8.00;;;4.90;99.90;;;;;;5012587;28;20026;-78
2022/03/28 07:25:36;;;;;;;14.15;6.72;;;5.10;99.90;;;;;;5009140;28;20034;-77
2022/03/28 07:28:12;;;;;;;15.10;8.23;;;5.20;99.90;;;;;;5009145;28;20036;-79
2022/03/28 07:30:40;;;;;;;17.38;7.28;;;5.30;99.90;;;;;;5010988;28;20037;-79
2022/03/28 07:33:06;;;;;;;13.35;6.25;;;5.50;99.90;;;;;;5008515;28;20381;-78
2022/03/28 07:35:36;;;;;;;16.95;8.13;;;5.70;99.90;;;;;;5005986;28;20045;-78
2022/03/28 07:38:07;;;;;;;13.73;7.50;;;5.90;99.90;;;;;;5010009;28;20049;-78
2022/03/28 07:40:33;;;;;;;14.30;7.40;;;6.10;99.90;;;;;;5015991;28;20472;-79
2022/03/28 07:42:59;;;;;;;20.88;8.82;;;6.30;99.90;;;;;;5008530;28;20030;-78
2022/03/28 07:45:26;;;;;;;20.58;8.57;;;6.50;98.60;;;;;;5006160;28;20023;-77
2022/03/28 07:47:52;;;;;;;22.48;9.52;;;6.70;98.10;;;;;;5010887;28;20116;-78
2022/03/28 07:50:17;;;;;;;17.75;8.73;;;6.80;98.90;;;;;;5003969;28;20156;-78
2022/03/28 07:52:43;;;;;;;17.10;8.32;;;7.10;99.00;;;;;;5012242;28;20029;-78
2022/03/28 07:55:13;;;;;;;18.80;7.45;;;7.30;97.80;;;;;;5007816;28;20042;-78
2022/03/28 07:57:40;;;;;;;18.08;8.65;;;7.50;96.50;;;;;;4993396;28;20065;-78
2022/03/28 08:00:10;;;;;;;16.08;7.85;;;7.80;96.10;;;;;;5005617;28;20467;-78
2022/03/28 08:02:36;;;;;;;16.27;7.20;;;8.00;96.70;;;;;;5004257;28;20101;-78
2022/03/28 08:05:02;;;;;;;14.43;7.32;;;8.30;94.50;;;;;;5003445;28;20038;-78
2022/03/28 08:07:28;;;;;;;9.55;5.00;;;8.50;93.20;;;;;;5006222;28;20372;-78
2022/03/28 08:09:54;;;;;;;25.73;9.70;;;8.70;92.40;;;;;;5010929;28;20112;-78
2022/03/28 08:12:20;;;;;;;19.98;9.02;;;9.00;90.20;;;;;;5007004;28;20114;-78
2022/03/28 08:14:46;;;;;;;15.32;6.22;;;9.30;81.10;;;;;;5012219;28;20056;-79
2022/03/28 08:17:12;;;;;;;15.23;8.00;;;9.50;82.10;;;;;;5005059;28;20453;-78
2022/03/28 08:19:37;;;;;;;19.77;9.07;;;9.60;80.10;;;;;;5010544;28;20388;-78
2022/03/28 08:22:03;;;;;;;18.55;8.40;;;9.80;81.50;;;;;;5008900;28;20112;-78
2022/03/28 08:24:29;;;;;;;16.67;8.55;;;10.00;77.00;;;;;;5005863;28;20038;-78
2022/03/28 08:26:54;;;;;;;17.80;8.98;;;10.00;75.10;;;;;;5009269;28;20101;-78
2022/03/28 08:29:20;;;;;;;14.93;5.97;;;10.30;78.90;;;;;;5008081;28;20029;-78
2022/03/28 08:31:46;;;;;;;16.75;8.95;;;10.50;79.30;;;;;;5009786;28;20088;-78
2022/03/28 08:34:11;;;;;;;15.55;8.15;;;10.50;76.40;;;;;;5014129;28;20084;-77
2022/03/28 08:36:37;;;;;;;23.52;9.35;;;10.70;68.90;;;;;;5011238;28;21724;-77
2022/03/28 08:39:05;;;;;;;19.23;9.02;;;10.80;72.00;;;;;;5006573;28;20040;-78
2022/03/28 08:41:32;;;;;;;17.50;9.27;;;11.00;67.70;;;;;;5009751;28;20022;-78
2022/03/28 08:43:58;;;;;;;18.27;9.15;;;11.20;69.20;;;;;;5010818;28;20041;-77
2022/03/28 08:46:25;;;;;;;19.38;9.02;;;11.50;72.80;;;;;;4987327;28;20041;-77
2022/03/28 08:48:54;;;;;;;18.08;7.60;;;11.60;67.10;;;;;;5012588;28;20068;-77
2022/03/28 08:51:20;;;;;;;18.42;9.10;;;11.80;65.10;;;;;;5005235;28;20030;-77
2022/03/28 08:53:46;;;;;;;17.80;9.40;;;11.70;61.50;;;;;;5010423;28;21467;-78
2022/03/28 08:56:13;;;;;;;17.02;7.53;;;11.90;61.20;;;;;;4993189;28;20114;-78
2022/03/28 08:58:39;;;;;;;18.55;8.95;;;12.00;63.40;;;;;;5008385;28;20389;-77
2022/03/28 09:01:05;;;;;;;14.55;8.48;;;12.20;60.70;;;;;;5013124;28;20046;-78
2022/03/28 09:03:39;;;;;;;20.00;9.60;;;12.20;59.80;;;;;;5009826;28;20021;-77
2022/03/28 09:06:28;;;;;;;19.73;10.02;;;12.30;62.60;;;;;;5011641;28;20026;-77
2022/03/28 09:08:54;;;;;;;20.48;9.68;;;12.50;64.20;;;;;;5004987;28;20034;-77
2022/03/28 09:11:21;;;;;;;22.50;10.07;;;12.90;62.00;;;;;;5008706;28;20060;-77
2022/03/28 09:13:47;;;;;;;19.25;9.93;;;13.10;60.30;;;;;;5009941;28;20044;-78
2022/03/28 09:16:19;;;;;;;20.15;9.68;;;13.30;55.40;;;;;;5013381;28;20033;-78
2022/03/28 09:18:45;;;;;;;17.30;8.77;;;13.10;54.60;;;;;;5005389;28;20088;-77
2022/03/28 09:21:16;;;;;;;24.35;10.38;;;13.30;55.40;;;;;;5008483;28;20046;-77
2022/03/28 09:23:48;;;;;;;18.73;8.35;;;13.50;53.50;;;;;;5013696;28;20385;-77
2022/03/28 09:26:23;;;;;;;21.90;10.00;;;13.70;51.00;;;;;;5009329;28;20034;-77
2022/03/28 09:29:01;;;;;;;22.35;9.02;;;13.60;51.70;;;;;;5006973;28;20034;-77
2022/03/28 09:31:37;;;;;;;21.75;8.75;;;13.60;49.60;;;;;;4991812;28;20054;-78
2022/03/28 09:34:02;;;;;;;17.70;8.75;;;13.70;50.00;;;;;;5012299;28;20129;-78
2022/03/28 09:36:37;;;;;;;20.77;9.43;;;13.90;52.20;;;;;;4986396;28;20122;-77
2022/03/28 09:39:04;;;;;;;19.92;9.13;;;14.30;52.20;;;;;;5006425;28;20038;-77
2022/03/28 09:41:31;;;;;;;18.75;8.75;;;14.60;49.20;;;;;;5006916;28;20107;-78
2022/03/28 09:43:57;;;;;;;21.95;9.77;;;14.80;48.80;;;;;;5006502;28;20029;-77
2022/03/28 09:46:31;;;;;;;21.35;9.57;;;14.90;48.00;;;;;;5006683;28;20084;-77
2022/03/28 09:48:59;;;;;;;22.52;9.75;;;14.70;48.20;;;;;;5005263;28;20065;-77
2022/03/28 09:51:30;;;;;;;18.95;9.50;;;14.60;50.70;;;;;;5011769;28;20030;-78
2022/03/28 09:53:57;;;;;;;23.35;10.05;;;14.60;47.10;;;;;;5007311;28;20080;-77
2022/03/28 09:56:24;;;;;;;18.33;9.40;;;14.80;49.50;;;;;;5008663;28;20029;-77
2022/03/28 09:58:59;;;;;;;19.75;9.90;;;15.10;51.00;;;;;;5009335;28;20069;-78
2022/03/28 10:01:29;;;;;;;23.00;10.65;;;15.30;47.50;;;;;;5009237;28;20165;-78
2022/03/28 10:04:01;;;;;;;17.80;8.38;;;15.20;47.50;;;;;;5007484;28;20108;-77
2022/03/28 10:06:28;;;;;;;17.60;9.05;;;15.20;47.20;;;;;;4989463;28;20937;-77
2022/03/28 10:08:54;;;;;;;18.05;9.45;;;15.30;47.90;;;;;;5005217;28;20473;-77
2022/03/28 10:11:20;;;;;;;14.00;8.00;;;15.40;46.70;;;;;;5007623;28;20048;-77
2022/03/28 10:13:46;;;;;;;19.95;9.88;;;15.50;45.50;;;;;;5008312;28;20096;-78
2022/03/28 10:16:12;;;;;;;25.33;10.50;;;15.60;46.60;;;;;;5009837;28;20030;-76
2022/03/28 10:18:41;;;;;;;22.70;10.35;;;15.90;47.40;;;;;;5006342;28;20521;-78
2022/03/28 10:21:19;;;;;;;20.90;9.70;;;15.60;47.10;;;;;;5010535;28;20415;-77
2022/03/28 10:24:14;;;;;;;24.95;10.68;;;15.80;47.40;;;;;;4988625;28;20134;-78
2022/03/28 10:26:44;;;;;;;24.30;10.73;;;15.90;46.80;;;;;;5011399;28;20045;-77
2022/03/28 10:29:17;;;;;;;20.45;8.88;;;16.20;45.40;;;;;;4993758;28;20022;-78
2022/03/28 10:31:55;;;;;;;25.40;10.60;;;16.50;43.70;;;;;;5015677;28;20041;-77
2022/03/28 10:34:45;;;;;;;22.98;9.57;;;16.50;45.00;;;;;;4993057;28;20504;-78
2022/03/28 10:37:30;;;;;;;22.58;10.35;;;16.70;44.70;;;;;;4992275;28;20105;-77
2022/03/28 10:40:23;;;;;;;20.80;9.38;;;16.80;43.90;;;;;;5005893;28;20030;-78
2022/03/28 10:42:52;;;;;;;21.02;9.52;;;16.80;43.00;;;;;;5010418;28;20465;-77
2022/03/28 10:45:20;;;;;;;21.10;10.02;;;16.90;42.00;;;;;;5011675;28;20030;-78
2022/03/28 10:47:53;;;;;;;23.37;10.13;;;17.10;43.90;;;;;;5013103;28;20037;-77
2022/03/28 10:50:24;;;;;;;21.30;9.50;;;17.20;43.70;;;;;;5014234;28;20360;-78
2022/03/28 10:53:10;;;;;;;23.27;9.23;;;17.50;44.20;;;;;;5012277;28;20033;-78
2022/03/28 10:55:41;;;;;;;21.30;9.50;;;17.70;41.70;;;;;;5012132;28;20033;-77
2022/03/28 10:58:19;;;;;;;20.80;9.80;;;17.40;40.60;;;;;;5010454;28;20048;-77
2022/03/28 11:01:11;;;;;;;18.13;9.63;;;17.40;40.40;;;;;;5010205;28;20073;-78
2022/03/28 11:04:15;;;;;;;16.42;7.45;;;17.40;41.30;;;;;;5011443;28;20030;-77
2022/03/28 11:06:49;;;;;;;22.35;10.02;;;17.20;40.80;;;;;;4973688;28;20038;-77
2022/03/28 11:09:31;;;;;;;20.35;8.15;;;17.40;39.00;;;;;;5008988;28;20033;-78
2022/03/28 11:11:59;;;;;;;19.13;9.35;;;17.50;40.30;;;;;;5009685;28;20050;-78
2022/03/28 11:14:52;;;;;;;20.60;8.35;;;17.50;39.50;;;;;;5011157;28;20484;-77
2022/03/28 11:17:23;;;;;;;18.08;8.80;;;17.60;37.10;;;;;;5009077;28;20099;-77
2022/03/28 11:20:09;;;;;;;20.35;9.35;;;17.90;38.60;;;;;;5011732;28;20536;-77
2022/03/28 11:23:06;;;;;;;13.77;6.68;;;17.90;37.80;;;;;;5000394;28;20116;-77
2022/03/28 11:25:38;;;;;;;20.55;9.23;;;17.90;36.00;;;;;;5015651;28;20041;-77
2022/03/28 11:28:22;;;;;;;20.55;9.48;;;17.70;36.60;;;;;;5014638;28;20362;-78
2022/03/28 11:31:00;;;;;;;18.00;7.43;;;17.90;36.10;;;;;;5010058;28;20041;-77
2022/03/28 11:33:30;;;;;;;17.98;8.48;;;18.00;32.60;;;;;;5008391;28;20033;-77
2022/03/28 11:36:02;;;;;;;15.32;8.40;;;18.20;32.10;;;;;;5010981;28;20128;-77
2022/03/28 11:38:31;;;;;;;15.23;7.10;;;18.20;32.30;;;;;;5012081;28;20037;-77
2022/03/28 11:40:57;;;;;;;16.75;7.90;;;18.30;32.00;;;;;;5010595;28;20125;-77
2022/03/28 11:43:45;;;;;;;15.20;7.80;;;18.30;31.00;;;;;;5011913;28;20034;-77
2022/03/28 11:46:15;;;;;;;17.93;8.20;;;18.30;29.90;;;;;;5007617;28;20604;-77
2022/03/28 11:49:03;;;;;;;16.60;7.68;;;18.40;31.50;;;;;;5009392;28;20284;-77
2022/03/28 11:51:30;;;;;;;12.73;7.00;;;18.30;30.60;;;;;;5003935;28;20030;-77
2022/03/28 11:54:01;;;;;;;15.77;7.50;;;18.40;32.50;;;;;;4988261;28;20029;-77
2022/03/28 11:56:34;;;;;;;12.63;6.68;;;18.50;31.60;;;;;;5011618;28;20117;-77
2022/03/28 11:59:03;;;;;;;12.00;6.88;;;18.60;28.90;;;;;;5006715;28;20149;-77
2022/03/28 12:01:30;;;;;;;14.65;6.80;;;18.30;29.50;;;;;;5009624;28;20489;-77
2022/03/28 12:03:57;;;;;;;15.15;7.20;;;18.30;32.00;;;;;;5006248;28;20045;-78
2022/03/28 12:06:30;;;;;;;15.70;7.10;;;18.40;30.60;;;;;;4991405;28;20033;-77
2022/03/28 12:08:56;;;;;;;14.30;7.50;;;18.40;30.60;;;;;;5008090;28;20084;-77
2022/03/28 12:11:24;;;;;;;13.65;7.60;;;18.40;30.20;;;;;;5007655;28;20060;-77
2022/03/28 12:13:50;;;;;;;17.00;7.53;;;18.30;30.20;;;;;;5012593;28;20524;-77
2022/03/28 12:16:16;;;;;;;17.92;7.43;;;18.30;31.20;;;;;;5007740;28;20026;-77
2022/03/28 12:18:42;;;;;;;14.85;6.20;;;18.50;31.70;;;;;;5014963;28;20040;-77
2022/03/28 12:21:08;;;;;;;18.20;7.55;;;18.60;30.20;;;;;;5008103;28;20708;-78
2022/03/28 12:23:36;;;;;;;15.73;7.63;;;18.30;29.10;;;;;;5012196;28;20034;-77
2022/03/28 12:26:03;;;;;;;12.15;5.50;;;18.20;29.50;;;;;;4993021;28;20021;-77
2022/03/28 12:28:34;;;;;;;18.17;8.60;;;18.30;30.00;;;;;;5010532;28;20101;-77
2022/03/28 12:31:05;;;;;;;18.33;8.10;;;18.40;31.60;;;;;;4989794;28;20473;-77
2022/03/28 12:33:38;;;;;;;11.23;5.97;;;18.50;30.50;;;;;;5013635;28;20030;-77
2022/03/28 12:36:11;;;;;;;13.85;6.88;;;18.50;29.60;;;;;;5005599;28;20034;-77
2022/03/28 12:38:41;;;;;;;12.50;6.63;;;18.50;29.40;;;;;;5009867;28;20088;-78
2022/03/28 12:41:15;;;;;;;14.40;6.43;;;18.50;30.60;;;;;;5006180;28;20121;-77
2022/03/28 12:43:48;;;;;;;17.55;7.97;;;18.50;29.70;;;;;;5010754;28;20037;-77
2022/03/28 12:46:16;;;;;;;16.80;7.65;;;18.60;29.60;;;;;;5006875;28;20034;-77
2022/03/28 12:48:52;;;;;;;13.50;7.20;;;18.60;30.00;;;;;;4991207;28;20034;-77
2022/03/28 12:51:28;;;;;;;16.48;7.38;;;18.60;29.50;;;;;;5008363;28;20034;-77
2022/03/28 12:54:02;;;;;;;16.33;7.43;;;18.80;30.60;;;;;;5010474;28;20076;-77